createdAt,value
2022-10-03T00:01:52.332Z,17.10
2022-10-03T00:05:03.136Z,17.10
2022-10-03T00:07:47.127Z,17.20
2022-10-03T00:10:34.064Z,17.20
2022-10-03T00:13:21.750Z,17.20
2022-10-03T00:16:09.856Z,17.20
2022-10-03T00:19:11.336Z,17.20
2022-10-03T00:21:49.115Z,17.20
2022-10-03T00:24:56.783Z,17.20
2022-10-03T00:27:48.643Z,17.20
2022-10-03T00:30:22.960Z,17.10
2022-10-03T00:33:09.727Z,17.10
2022-10-03T00:35:44.355Z,17.20
2022-10-03T00:38:22.075Z,17.20
2022-10-03T00:41:00.775Z,17.20
2022-10-03T00:43:56.390Z,17.20
2022-10-03T00:46:43.925Z,17.30
2022-10-03T00:49:24.762Z,17.30
2022-10-03T00:52:38.082Z,17.30
2022-10-03T00:55:35.834Z,17.30
2022-10-03T00:58:27.475Z,17.20
2022-10-03T01:01:21.147Z,17.20
2022-10-03T01:04:30.396Z,17.20
2022-10-03T01:07:10.745Z,17.20
2022-10-03T01:10:09.533Z,17.10
2022-10-03T01:13:14.322Z,17.10
2022-10-03T01:15:58.539Z,17.20
2022-10-03T01:18:30.340Z,17.30
2022-10-03T01:21:22.086Z,17.30
2022-10-03T01:23:59.976Z,17.40
2022-10-03T01:26:43.735Z,17.40
2022-10-03T01:29:46.647Z,17.40
2022-10-03T01:32:37.613Z,17.40
2022-10-03T01:35:27.545Z,17.40
2022-10-03T01:38:22.744Z,17.50
2022-10-03T01:41:03.515Z,17.50
2022-10-03T01:43:42.889Z,17.60
2022-10-03T01:46:47.347Z,17.50
2022-10-03T01:49:33.973Z,17.50
2022-10-03T01:52:20.839Z,17.50
2022-10-03T01:55:29.412Z,17.50
2022-10-03T01:58:20.334Z,17.60
2022-10-03T02:01:12.285Z,17.60
2022-10-03T02:04:02.681Z,17.70
2022-10-03T02:06:50.541Z,17.70
2022-10-03T02:09:48.253Z,17.70
2022-10-03T02:12:23.110Z,17.70
2022-10-03T02:15:00.167Z,17.70
2022-10-03T02:17:47.872Z,17.80
2022-10-03T02:20:40.981Z,17.80
2022-10-03T02:23:46.142Z,17.70
2022-10-03T02:27:01.908Z,17.60
2022-10-03T02:29:45.410Z,17.50
2022-10-03T02:32:23.999Z,17.50
2022-10-03T02:35:02.162Z,17.50
2022-10-03T02:38:11.280Z,17.50
2022-10-03T02:41:05.498Z,17.60
2022-10-03T02:44:15.707Z,17.70
2022-10-03T02:47:14.635Z,17.70
2022-10-03T02:50:19.290Z,17.60
2022-10-03T02:53:03.083Z,17.50
2022-10-03T02:55:47.317Z,17.50
2022-10-03T02:58:46.797Z,17.60
2022-10-03T03:01:40.836Z,17.60
2022-10-03T03:04:40.548Z,17.60
2022-10-03T03:07:30.290Z,17.70
2022-10-03T03:10:27.923Z,17.70
2022-10-03T03:13:18.465Z,17.80
2022-10-03T03:16:28.083Z,17.80
2022-10-03T03:19:28.845Z,17.70
2022-10-03T03:22:15.764Z,17.60
2022-10-03T03:24:57.804Z,17.60
2022-10-03T03:27:44.974Z,17.60
2022-10-03T03:30:24.964Z,17.60
2022-10-03T03:33:23.720Z,17.60
2022-10-03T03:36:24.955Z,17.60
2022-10-03T03:39:18.269Z,17.70
2022-10-03T03:42:15.584Z,17.80
2022-10-03T03:45:03.225Z,17.80
2022-10-03T03:47:59.149Z,17.70
2022-10-03T03:50:52.928Z,17.60
2022-10-03T03:54:21.342Z,17.50
2022-10-03T03:57:16.219Z,17.40
2022-10-03T04:00:15.806Z,17.40
2022-10-03T04:02:53.607Z,17.30
2022-10-03T04:05:50.298Z,17.20
2022-10-03T04:08:40.914Z,17.10
2022-10-03T04:11:23.978Z,17.10
2022-10-03T04:14:11.201Z,17.00
2022-10-03T04:17:57.188Z,16.90
2022-10-03T04:20:53.532Z,16.90
2022-10-03T04:23:37.466Z,16.80
2022-10-03T04:26:36.803Z,16.80
2022-10-03T04:30:06.611Z,16.70
2022-10-03T04:33:07.294Z,16.60
2022-10-03T04:36:34.197Z,16.60
2022-10-03T04:39:46.923Z,16.50
2022-10-03T04:42:40.911Z,16.40
2022-10-03T04:45:34.379Z,16.30
2022-10-03T04:48:11.288Z,16.10
2022-10-03T04:50:57.520Z,16.10
2022-10-03T04:53:54.258Z,16.00
2022-10-03T04:56:28.907Z,16.10
2022-10-03T04:59:04.825Z,16.10
2022-10-03T05:01:50.749Z,16.10
2022-10-03T05:04:31.341Z,16.10
2022-10-03T05:07:25.886Z,16.10
2022-10-03T05:10:19.174Z,16.20
2022-10-03T05:13:02.012Z,16.10
2022-10-03T05:15:42.035Z,16.10
2022-10-03T05:18:44.218Z,16.10
2022-10-03T05:21:34.206Z,15.90
2022-10-03T05:24:24.755Z,15.80
2022-10-03T05:27:22.930Z,15.90
2022-10-03T05:30:20.142Z,16.00
2022-10-03T05:33:02.851Z,16.00
2022-10-03T05:35:51.306Z,15.90
2022-10-03T05:38:44.458Z,15.90
2022-10-03T05:41:26.863Z,16.00
2022-10-03T05:44:09.562Z,16.00
2022-10-03T05:46:59.254Z,15.90
2022-10-03T05:49:43.420Z,16.00
2022-10-03T05:52:59.208Z,16.10
2022-10-03T05:55:58.840Z,16.10
2022-10-03T05:58:33.458Z,16.10
2022-10-03T06:01:10.963Z,16.20
2022-10-03T06:04:15.809Z,16.30
2022-10-03T06:06:47.633Z,16.30
2022-10-03T06:09:46.701Z,16.40
2022-10-03T06:12:30.554Z,16.40
2022-10-03T06:15:25.685Z,16.70
2022-10-03T06:18:03.557Z,17.10
2022-10-03T06:21:08.767Z,17.50
2022-10-03T06:24:11.874Z,17.90
2022-10-03T06:27:20.837Z,18.30
2022-10-03T06:30:24.475Z,18.70
2022-10-03T06:33:17.491Z,19.10
2022-10-03T06:36:26.354Z,19.50
2022-10-03T06:39:35.887Z,19.60
2022-10-03T06:42:26.711Z,20.10
2022-10-03T06:45:25.621Z,20.40
2022-10-03T06:48:25.120Z,20.50
2022-10-03T06:51:15.755Z,20.70
2022-10-03T06:54:24.587Z,20.90
2022-10-03T06:57:20.062Z,21.20
2022-10-03T07:00:20.533Z,21.60
2022-10-03T07:03:26.531Z,21.80
2022-10-03T07:06:22.439Z,22.00
2022-10-03T07:09:40.012Z,22.20
2022-10-03T07:12:17.963Z,22.50
2022-10-03T07:15:50.796Z,22.50
2022-10-03T07:18:46.603Z,22.80
2022-10-03T07:21:31.209Z,23.10
2022-10-03T07:24:31.240Z,23.30
2022-10-03T07:27:41.764Z,23.40
2022-10-03T07:30:37.344Z,23.40
2022-10-03T07:33:36.621Z,23.60
2022-10-03T07:36:51.465Z,23.40
2022-10-03T07:39:47.962Z,23.30
2022-10-03T07:42:38.538Z,23.50
2022-10-03T07:45:30.297Z,23.60
2022-10-03T07:48:18.794Z,24.00
2022-10-03T07:50:57.174Z,24.70
2022-10-03T07:53:46.951Z,24.80
2022-10-03T07:56:55.474Z,25.20
2022-10-03T08:00:05.243Z,25.10
2022-10-03T08:02:46.992Z,24.70
2022-10-03T08:05:36.771Z,24.90
2022-10-03T08:08:33.567Z,25.30
2022-10-03T08:11:17.500Z,25.20
2022-10-03T08:14:26.890Z,25.20
2022-10-03T08:17:22.699Z,25.00
2022-10-03T08:20:26.199Z,25.40
2022-10-03T08:23:06.934Z,25.60
2022-10-03T08:25:57.153Z,25.50
2022-10-03T08:28:55.176Z,24.40
2022-10-03T08:31:45.105Z,23.60
2022-10-03T08:34:29.952Z,23.30
2022-10-03T08:37:30.596Z,22.80
2022-10-03T08:40:05.454Z,23.10
2022-10-03T08:43:06.480Z,23.10
2022-10-03T08:46:05.402Z,23.30
2022-10-03T08:48:49.082Z,23.10
2022-10-03T08:51:40.727Z,23.40
2022-10-03T08:54:54.152Z,23.60
2022-10-03T08:57:55.978Z,23.90
2022-10-03T09:00:47.952Z,24.10
2022-10-03T09:03:42.849Z,24.30
2022-10-03T09:07:15.937Z,25.00
2022-10-03T09:10:14.302Z,25.70
2022-10-03T09:13:24.775Z,26.30
2022-10-03T09:16:14.881Z,26.60
2022-10-03T09:19:30.899Z,27.00
2022-10-03T09:22:57.002Z,27.30
2022-10-03T09:26:10.602Z,27.20
2022-10-03T09:29:21.396Z,27.20
2022-10-03T09:31:56.200Z,27.20
2022-10-03T09:35:22.603Z,27.30
2022-10-03T09:38:23.713Z,27.60
2022-10-03T09:41:28.541Z,27.70
2022-10-03T09:44:28.337Z,27.90
2022-10-03T09:47:28.375Z,27.80
2022-10-03T09:50:21.534Z,27.30
2022-10-03T09:53:21.120Z,26.60
2022-10-03T09:56:13.233Z,26.30
2022-10-03T09:59:12.091Z,26.20
2022-10-03T10:01:50.982Z,26.20
2022-10-03T10:04:59.944Z,26.70
2022-10-03T10:07:38.191Z,27.40
2022-10-03T10:10:47.735Z,27.80
2022-10-03T10:13:40.061Z,27.90
2022-10-03T10:16:29.890Z,28.30
2022-10-03T10:19:35.040Z,28.80
2022-10-03T10:22:38.797Z,28.70
2022-10-03T10:25:16.827Z,28.40
2022-10-03T10:28:31.106Z,28.30
2022-10-03T10:31:25.421Z,27.40
2022-10-03T10:34:05.890Z,26.60
2022-10-03T10:37:02.473Z,25.50
2022-10-03T10:39:56.380Z,24.50
2022-10-03T10:42:40.083Z,24.60
2022-10-03T10:45:24.427Z,24.10
2022-10-03T10:48:29.768Z,24.00
2022-10-03T10:51:46.446Z,24.20
2022-10-03T10:54:40.248Z,24.00
2022-10-03T10:57:48.886Z,23.90
2022-10-03T11:00:30.993Z,24.10
2022-10-03T11:03:41.361Z,23.90
2022-10-03T11:06:49.142Z,23.90
2022-10-03T11:09:39.493Z,23.70
2022-10-03T11:13:02.987Z,23.50
2022-10-03T11:16:08.407Z,23.70
2022-10-03T11:19:12.395Z,24.00
2022-10-03T11:22:09.237Z,23.80
2022-10-03T11:24:59.243Z,23.60
2022-10-03T11:27:52.765Z,23.40
2022-10-03T11:30:42.295Z,23.50
2022-10-03T11:33:44.808Z,23.50
2022-10-03T11:36:35.276Z,23.80
2022-10-03T11:39:19.865Z,23.80
2022-10-03T11:42:02.455Z,23.80
2022-10-03T11:44:53.323Z,23.90
2022-10-03T11:47:34.088Z,24.00
2022-10-03T11:50:23.501Z,23.90
2022-10-03T11:53:07.963Z,23.80
2022-10-03T11:55:47.179Z,23.90
2022-10-03T11:58:27.746Z,24.00
2022-10-03T12:01:24.113Z,23.80
2022-10-03T12:04:26.655Z,23.80
2022-10-03T12:07:35.006Z,23.90
2022-10-03T12:10:19.505Z,23.90
2022-10-03T12:12:56.970Z,23.90
2022-10-03T12:15:59.044Z,23.90
2022-10-03T12:18:42.919Z,24.00
2022-10-03T12:21:33.854Z,24.00
2022-10-03T12:24:28.675Z,23.90
2022-10-03T12:27:30.421Z,24.10
2022-10-03T12:30:11.304Z,24.10
2022-10-03T12:32:52.283Z,24.10
2022-10-03T12:35:24.799Z,24.30
2022-10-03T12:38:15.101Z,24.20
2022-10-03T12:41:06.965Z,24.10
2022-10-03T12:44:05.423Z,24.10
2022-10-03T12:47:02.409Z,24.10
2022-10-03T12:49:46.703Z,24.20
2022-10-03T12:52:33.646Z,24.00
2022-10-03T12:55:29.253Z,23.90
2022-10-03T12:58:21.546Z,24.10
2022-10-03T13:01:09.853Z,24.00
2022-10-03T13:03:52.043Z,24.00
2022-10-03T13:07:02.476Z,24.10
2022-10-03T13:10:01.867Z,24.20
2022-10-03T13:12:40.282Z,24.10
2022-10-03T13:15:36.758Z,24.10
2022-10-03T13:18:38.657Z,24.10
2022-10-03T13:21:44.926Z,24.20
2022-10-03T13:24:33.525Z,24.10
2022-10-03T13:27:11.204Z,24.20
2022-10-03T13:29:47.037Z,24.10
2022-10-03T13:32:33.208Z,24.30
2022-10-03T13:35:52.788Z,24.40
2022-10-03T13:39:03.009Z,24.60
2022-10-03T13:41:37.922Z,24.40
2022-10-03T13:44:23.804Z,24.10
2022-10-03T13:47:27.713Z,24.10
2022-10-03T13:50:15.380Z,24.20
2022-10-03T13:52:57.869Z,24.30
2022-10-03T13:55:44.954Z,24.40
2022-10-03T13:58:17.393Z,24.60
2022-10-03T14:01:07.513Z,24.70
2022-10-03T14:03:58.992Z,24.80
2022-10-03T14:06:39.264Z,24.40
2022-10-03T14:09:26.670Z,24.10
2022-10-03T14:12:04.280Z,24.10
2022-10-03T14:15:11.579Z,24.30
2022-10-03T14:18:01.999Z,24.30
2022-10-03T14:20:56.375Z,24.40
2022-10-03T14:23:57.994Z,24.30
2022-10-03T14:27:10.776Z,24.20
2022-10-03T14:29:54.603Z,24.20
2022-10-03T14:32:46.090Z,24.30
2022-10-03T14:35:38.726Z,24.30
2022-10-03T14:39:04.854Z,24.30
2022-10-03T14:42:18.459Z,24.30
2022-10-03T14:45:01.943Z,24.30
2022-10-03T14:47:37.924Z,24.30
2022-10-03T14:50:25.716Z,24.40
2022-10-03T14:53:02.393Z,24.30
2022-10-03T14:55:47.666Z,24.10
2022-10-03T14:58:43.038Z,23.90
2022-10-03T15:01:21.601Z,23.90
2022-10-03T15:04:06.894Z,23.90
2022-10-03T15:06:45.038Z,24.00
2022-10-03T15:09:42.692Z,24.10
2022-10-03T15:12:31.996Z,24.20
2022-10-03T15:15:06.637Z,24.20
2022-10-03T15:17:50.099Z,24.20
2022-10-03T15:20:34.794Z,24.20
2022-10-03T15:23:18.068Z,24.20
2022-10-03T15:25:56.988Z,24.10
2022-10-03T15:28:41.133Z,24.20
2022-10-03T15:31:35.787Z,24.10
2022-10-03T15:34:17.880Z,24.00
2022-10-03T15:36:55.689Z,24.00
2022-10-03T15:39:43.838Z,24.00
2022-10-03T15:42:28.747Z,23.90
2022-10-03T15:45:05.635Z,23.90
2022-10-03T15:47:45.058Z,23.80
2022-10-03T15:50:25.062Z,23.60
2022-10-03T15:53:36.117Z,23.50
2022-10-03T15:56:18.943Z,23.50
2022-10-03T15:58:59.894Z,23.50
2022-10-03T16:01:42.077Z,23.50
2022-10-03T16:04:22.164Z,23.40
2022-10-03T16:07:15.227Z,23.30
2022-10-03T16:09:56.284Z,23.20
2022-10-03T16:12:53.085Z,23.10
2022-10-03T16:15:26.772Z,23.00
2022-10-03T16:18:10.539Z,22.90
2022-10-03T16:20:54.287Z,22.80
2022-10-03T16:23:34.734Z,22.70
2022-10-03T16:26:13.154Z,22.60
2022-10-03T16:28:51.388Z,22.40
2022-10-03T16:31:35.237Z,22.10
2022-10-03T16:34:14.510Z,21.90
2022-10-03T16:36:49.378Z,21.80
2022-10-03T16:39:30.180Z,21.60
2022-10-03T16:42:12.210Z,21.60
2022-10-03T16:44:51.934Z,21.40
2022-10-03T16:47:36.545Z,21.30
2022-10-03T16:50:24.879Z,21.30
2022-10-03T16:52:59.040Z,21.30
2022-10-03T16:55:39.152Z,21.30
2022-10-03T16:58:36.249Z,21.20
2022-10-03T17:01:27.463Z,21.10
2022-10-03T17:04:41.056Z,21.00
2022-10-03T17:07:18.438Z,20.80
2022-10-03T17:09:59.471Z,20.70
2022-10-03T17:12:38.412Z,20.70
2022-10-03T17:15:20.955Z,20.60
2022-10-03T17:18:05.364Z,20.60
2022-10-03T17:20:45.475Z,20.40
2022-10-03T17:23:44.652Z,20.30
2022-10-03T17:26:29.514Z,20.10
2022-10-03T17:29:10.381Z,20.00
2022-10-03T17:32:09.420Z,20.00
2022-10-03T17:34:53.177Z,20.00
2022-10-03T17:38:37.111Z,20.00
2022-10-03T17:41:13.692Z,20.00
2022-10-03T17:44:05.799Z,20.00
2022-10-03T17:46:51.056Z,19.80
2022-10-03T17:49:51.477Z,19.70
2022-10-03T17:52:24.932Z,19.60
2022-10-03T17:55:02.604Z,19.70
2022-10-03T17:57:47.236Z,19.70
2022-10-03T18:00:21.633Z,19.60
2022-10-03T18:02:56.624Z,19.50
2022-10-03T18:05:43.570Z,19.50
2022-10-03T18:08:26.381Z,19.40
2022-10-03T18:11:02.578Z,19.40
2022-10-03T18:13:45.216Z,19.30
2022-10-03T18:17:01.399Z,19.30
2022-10-03T18:20:08.973Z,19.40
2022-10-03T18:22:48.445Z,19.50
2022-10-03T18:26:19.476Z,19.40
2022-10-03T18:29:22.423Z,19.30
2022-10-03T18:32:02.174Z,19.30
2022-10-03T18:34:43.918Z,19.30
2022-10-03T18:37:45.076Z,19.30
2022-10-03T18:40:23.808Z,19.20
2022-10-03T18:42:57.318Z,19.10
2022-10-03T18:45:44.637Z,19.20
2022-10-03T18:48:31.015Z,19.10
2022-10-03T18:51:31.412Z,19.00
2022-10-03T18:54:18.677Z,19.00
2022-10-03T18:57:18.923Z,19.00
2022-10-03T19:00:04.133Z,19.00
2022-10-03T19:02:56.546Z,18.90
2022-10-03T19:05:40.029Z,18.90
2022-10-03T19:08:18.779Z,18.80
2022-10-03T19:11:20.015Z,18.80
2022-10-03T19:13:54.759Z,18.80
2022-10-03T19:16:32.384Z,18.70
2022-10-03T19:19:33.588Z,18.60
2022-10-03T19:22:06.798Z,18.50
2022-10-03T19:24:58.016Z,18.40
2022-10-03T19:28:13.257Z,18.30
2022-10-03T19:30:55.911Z,18.20
2022-10-03T19:33:29.956Z,18.20
2022-10-03T19:36:05.223Z,18.30
2022-10-03T19:38:43.313Z,18.20
2022-10-03T19:41:29.823Z,18.10
2022-10-03T19:44:16.736Z,18.10
2022-10-03T19:46:48.596Z,18.10
2022-10-03T19:49:26.266Z,18.20
2022-10-03T19:52:20.045Z,18.20
2022-10-03T19:54:58.997Z,18.20
2022-10-03T19:57:41.928Z,18.20
2022-10-03T20:00:19.988Z,18.20
2022-10-03T20:03:12.489Z,18.20
2022-10-03T20:06:05.920Z,18.20
2022-10-03T20:08:39.891Z,18.10
2022-10-03T20:11:20.268Z,17.90
2022-10-03T20:13:54.224Z,17.90
2022-10-03T20:16:35.766Z,17.90
2022-10-03T20:19:12.314Z,18.00
2022-10-03T20:21:54.642Z,17.90
2022-10-03T20:24:36.846Z,18.00
2022-10-03T20:27:12.261Z,18.00
2022-10-03T20:30:05.460Z,18.00
2022-10-03T20:32:43.315Z,18.00
2022-10-03T20:35:45.662Z,18.00
2022-10-03T20:38:23.643Z,18.00
2022-10-03T20:41:11.512Z,17.90
2022-10-03T20:43:59.386Z,17.80
2022-10-03T20:46:44.043Z,17.70
2022-10-03T20:49:54.035Z,17.70
2022-10-03T20:52:26.544Z,17.80
2022-10-03T20:55:00.877Z,17.80
2022-10-03T20:57:54.602Z,17.70
2022-10-03T21:00:27.058Z,17.70
2022-10-03T21:03:21.603Z,17.50
2022-10-03T21:05:56.872Z,17.60
2022-10-03T21:08:40.382Z,17.60
2022-10-03T21:11:19.782Z,17.70
2022-10-03T21:13:59.846Z,17.60
2022-10-03T21:16:35.729Z,17.50
2022-10-03T21:19:26.885Z,17.50
2022-10-03T21:22:04.934Z,17.40
2022-10-03T21:24:53.164Z,17.30
2022-10-03T21:27:25.744Z,17.30
2022-10-03T21:29:57.724Z,17.40
2022-10-03T21:33:05.176Z,17.40
2022-10-03T21:35:40.469Z,17.30
2022-10-03T21:38:18.205Z,17.30
2022-10-03T21:41:23.487Z,17.30
2022-10-03T21:44:01.910Z,17.20
2022-10-03T21:47:11.881Z,17.30
2022-10-03T21:49:59.629Z,17.30
2022-10-03T21:52:40.286Z,17.40
2022-10-03T21:56:06.515Z,17.40
2022-10-03T21:59:22.735Z,17.40
2022-10-03T22:02:14.240Z,17.30
2022-10-03T22:05:17.261Z,17.30
2022-10-03T22:07:49.242Z,17.40
2022-10-03T22:10:21.859Z,17.40
2022-10-03T22:13:00.105Z,17.50
2022-10-03T22:15:50.303Z,17.60
2022-10-03T22:18:22.783Z,17.50
2022-10-03T22:21:25.491Z,17.40
2022-10-03T22:24:26.512Z,17.30
2022-10-03T22:27:16.960Z,17.30
2022-10-03T22:30:03.940Z,17.50
2022-10-03T22:32:54.060Z,17.50
2022-10-03T22:35:31.718Z,17.40
2022-10-03T22:38:04.364Z,17.40
2022-10-03T22:40:38.078Z,17.30
2022-10-03T22:43:12.637Z,17.40
2022-10-03T22:45:51.067Z,17.40
2022-10-03T22:48:29.842Z,17.40
2022-10-03T22:51:05.814Z,17.40
2022-10-03T22:53:40.760Z,17.40
2022-10-03T22:56:42.707Z,17.40
2022-10-03T22:59:21.286Z,17.50
2022-10-03T23:01:56.630Z,17.50
2022-10-03T23:04:31.816Z,17.40
2022-10-03T23:07:23.348Z,17.50
2022-10-03T23:10:25.458Z,17.40
2022-10-03T23:13:07.245Z,17.40
2022-10-03T23:15:41.086Z,17.40
2022-10-03T23:18:27.975Z,17.30
2022-10-03T23:21:11.218Z,17.30
2022-10-03T23:23:56.128Z,17.30
2022-10-03T23:26:49.824Z,17.40
2022-10-03T23:29:22.415Z,17.40
2022-10-03T23:32:00.591Z,17.40
2022-10-03T23:34:35.477Z,17.40
2022-10-03T23:37:13.469Z,17.40
2022-10-03T23:39:56.839Z,17.40
2022-10-03T23:42:31.468Z,17.40
2022-10-03T23:45:10.031Z,17.40
2022-10-03T23:47:52.762Z,17.40
2022-10-03T23:50:35.258Z,17.40
2022-10-03T23:53:15.958Z,17.40
2022-10-03T23:55:48.121Z,17.30
2022-10-03T23:58:35.098Z,17.40
